createdAt,value
2022-08-25T00:02:02.023Z,22.46
2022-08-25T00:04:30.667Z,22.33
2022-08-25T00:07:02.666Z,22.45
2022-08-25T00:09:30.744Z,22.43
2022-08-25T00:11:57.538Z,21.68
2022-08-25T00:14:30.679Z,22.03
2022-08-25T00:16:57.651Z,22.08
2022-08-25T00:19:28.231Z,22.12
2022-08-25T00:21:56.455Z,21.89
2022-08-25T00:24:23.370Z,21.63
2022-08-25T00:26:52.912Z,21.45
2022-08-25T00:29:20.416Z,21.27
2022-08-25T00:31:47.756Z,21.27
2022-08-25T00:34:23.249Z,21.71
2022-08-25T00:36:51.912Z,21.61
2022-08-25T00:39:21.171Z,21.66
2022-08-25T00:41:49.847Z,21.83
2022-08-25T00:44:18.911Z,21.80
2022-08-25T00:46:51.775Z,21.96
2022-08-25T00:49:36.463Z,22.08
2022-08-25T00:52:06.018Z,21.93
2022-08-25T00:54:37.847Z,21.88
2022-08-25T00:57:06.700Z,21.92
2022-08-25T00:59:34.260Z,21.79
2022-08-25T01:02:01.723Z,21.91
2022-08-25T01:04:28.316Z,22.05
2022-08-25T01:06:58.184Z,22.16
2022-08-25T01:09:25.107Z,22.07
2022-08-25T01:11:53.015Z,22.05
2022-08-25T01:14:21.553Z,22.02
2022-08-25T01:16:51.266Z,22.14
2022-08-25T01:19:21.438Z,22.07
2022-08-25T01:21:49.466Z,22.32
2022-08-25T01:24:40.891Z,22.01
2022-08-25T01:27:09.081Z,21.74
2022-08-25T01:29:37.403Z,21.66
2022-08-25T01:32:09.000Z,21.81
2022-08-25T01:34:37.919Z,21.78
2022-08-25T01:37:05.878Z,21.79
2022-08-25T01:39:34.093Z,21.83
2022-08-25T01:42:06.646Z,21.68
2022-08-25T01:44:36.091Z,21.61
2022-08-25T01:47:04.684Z,21.46
2022-08-25T01:49:32.590Z,21.55
2022-08-25T01:52:06.053Z,21.31
2022-08-25T01:54:32.850Z,21.12
2022-08-25T01:56:59.742Z,20.97
2022-08-25T01:59:27.256Z,21.22
2022-08-25T02:01:59.584Z,21.06
2022-08-25T02:04:32.425Z,21.12
2022-08-25T02:07:00.470Z,21.13
2022-08-25T02:09:27.715Z,21.20
2022-08-25T02:11:54.535Z,21.19
2022-08-25T02:14:21.209Z,21.07
2022-08-25T02:16:51.268Z,21.20
2022-08-25T02:19:19.368Z,20.87
2022-08-25T02:21:46.121Z,20.89
2022-08-25T02:24:12.864Z,21.07
2022-08-25T02:26:40.515Z,20.65
2022-08-25T02:29:08.711Z,20.83
2022-08-25T02:31:36.166Z,20.81
2022-08-25T02:34:04.152Z,20.88
2022-08-25T02:36:32.182Z,20.67
2022-08-25T02:38:59.218Z,20.90
2022-08-25T02:41:31.403Z,20.99
2022-08-25T02:44:02.603Z,20.84
2022-08-25T02:46:29.683Z,20.87
2022-08-25T02:48:57.525Z,20.85
2022-08-25T02:51:25.955Z,20.89
2022-08-25T02:53:52.820Z,20.84
2022-08-25T02:56:20.141Z,20.72
2022-08-25T02:58:47.548Z,20.88
2022-08-25T03:01:14.844Z,20.92
2022-08-25T03:03:43.526Z,20.80
2022-08-25T03:06:13.197Z,20.89
2022-08-25T03:08:42.219Z,20.81
2022-08-25T03:11:09.357Z,20.65
2022-08-25T03:13:36.370Z,20.69
2022-08-25T03:16:06.170Z,20.74
2022-08-25T03:18:40.172Z,20.54
2022-08-25T03:21:07.626Z,20.55
2022-08-25T03:23:34.587Z,20.56
2022-08-25T03:26:19.940Z,20.59
2022-08-25T03:28:46.674Z,19.72
2022-08-25T03:31:13.409Z,19.64
2022-08-25T03:33:40.313Z,20.21
2022-08-25T03:36:08.642Z,19.92
2022-08-25T03:38:38.391Z,20.06
2022-08-25T03:41:21.684Z,20.03
2022-08-25T03:43:49.629Z,20.22
2022-08-25T03:46:23.171Z,20.25
2022-08-25T03:48:50.443Z,20.24
2022-08-25T03:51:29.766Z,20.32
2022-08-25T03:53:58.301Z,20.13
2022-08-25T03:56:25.419Z,19.98
2022-08-25T03:58:52.607Z,20.19
2022-08-25T04:01:19.311Z,19.82
2022-08-25T04:03:47.077Z,19.70
2022-08-25T04:06:15.409Z,19.50
2022-08-25T04:08:42.517Z,19.71
2022-08-25T04:11:19.484Z,19.99
2022-08-25T04:13:47.242Z,19.98
2022-08-25T04:16:18.654Z,19.97
2022-08-25T04:18:47.746Z,20.06
2022-08-25T04:21:15.640Z,19.74
2022-08-25T04:23:44.406Z,19.88
2022-08-25T04:26:16.375Z,19.93
2022-08-25T04:28:43.345Z,19.73
2022-08-25T04:31:12.189Z,19.92
2022-08-25T04:33:39.144Z,20.11
2022-08-25T04:36:11.950Z,20.41
2022-08-25T04:38:41.524Z,20.35
2022-08-25T04:41:10.065Z,20.49
2022-08-25T04:43:38.728Z,20.49
2022-08-25T04:46:08.112Z,20.49
2022-08-25T04:48:35.262Z,20.62
2022-08-25T04:51:09.864Z,20.53
2022-08-25T04:53:37.291Z,20.75
2022-08-25T04:56:08.465Z,21.03
2022-08-25T04:58:36.673Z,20.95
2022-08-25T05:01:05.547Z,20.85
2022-08-25T05:03:32.997Z,20.85
2022-08-25T05:05:59.646Z,20.89
2022-08-25T05:08:26.486Z,20.67
2022-08-25T05:10:54.666Z,20.81
2022-08-25T05:13:22.462Z,21.17
2022-08-25T05:15:54.075Z,21.40
2022-08-25T05:18:23.057Z,21.64
2022-08-25T05:20:50.900Z,21.59
2022-08-25T05:23:17.720Z,21.70
2022-08-25T05:25:44.559Z,21.64
2022-08-25T05:28:11.533Z,21.72
2022-08-25T05:30:40.192Z,21.71
2022-08-25T05:33:07.571Z,21.66
2022-08-25T05:35:34.100Z,22.04
2022-08-25T05:38:00.993Z,21.78
2022-08-25T05:40:28.499Z,22.14
2022-08-25T05:42:55.268Z,22.20
2022-08-25T05:45:22.054Z,22.06
2022-08-25T05:47:49.307Z,21.95
2022-08-25T05:50:16.927Z,22.05
2022-08-25T05:52:44.299Z,22.06
2022-08-25T05:55:11.098Z,22.38
2022-08-25T05:57:37.923Z,22.15
2022-08-25T06:00:06.508Z,22.25
2022-08-25T06:02:43.831Z,22.31
2022-08-25T06:05:21.610Z,22.67
2022-08-25T06:07:50.479Z,22.43
2022-08-25T06:10:18.067Z,22.55
2022-08-25T06:12:45.912Z,22.60
2022-08-25T06:15:20.204Z,22.70
2022-08-25T06:17:48.121Z,22.82
2022-08-25T06:20:22.045Z,22.84
2022-08-25T06:22:52.436Z,22.87
2022-08-25T06:25:21.815Z,23.10
2022-08-25T06:27:49.046Z,22.85
2022-08-25T06:30:24.141Z,22.95
2022-08-25T06:32:52.583Z,22.69
2022-08-25T06:35:20.000Z,23.12
2022-08-25T06:37:47.243Z,23.30
2022-08-25T06:40:15.129Z,23.34
2022-08-25T06:42:42.247Z,23.50
2022-08-25T06:45:09.543Z,23.53
2022-08-25T06:47:36.345Z,23.58
2022-08-25T06:50:04.723Z,23.28
2022-08-25T06:52:31.769Z,23.51
2022-08-25T06:54:58.646Z,23.57
2022-08-25T06:57:25.363Z,23.54
2022-08-25T06:59:53.721Z,23.49
2022-08-25T07:02:22.312Z,23.73
2022-08-25T07:04:49.540Z,23.94
2022-08-25T07:07:16.207Z,23.78
2022-08-25T07:09:43.104Z,23.86
2022-08-25T07:12:10.007Z,24.01
2022-08-25T07:14:37.022Z,24.00
2022-08-25T07:17:10.527Z,24.25
2022-08-25T07:19:41.021Z,24.20
2022-08-25T07:22:07.841Z,24.08
2022-08-25T07:24:36.242Z,24.09
2022-08-25T07:27:03.075Z,24.33
2022-08-25T07:29:32.092Z,24.39
2022-08-25T07:32:01.405Z,24.56
2022-08-25T07:34:52.474Z,24.67
2022-08-25T07:37:38.319Z,24.99
2022-08-25T07:40:09.407Z,24.69
2022-08-25T07:42:36.095Z,24.71
2022-08-25T07:45:06.177Z,24.85
2022-08-25T07:47:34.854Z,25.12
2022-08-25T07:50:01.794Z,25.12
2022-08-25T07:52:28.558Z,25.28
2022-08-25T07:54:55.404Z,25.51
2022-08-25T07:57:23.983Z,25.57
2022-08-25T07:59:50.714Z,25.61
2022-08-25T08:02:19.391Z,25.45
2022-08-25T08:04:51.223Z,25.91
2022-08-25T08:07:41.983Z,25.88
2022-08-25T08:13:00.601Z,25.90
2022-08-25T08:15:29.535Z,25.65
2022-08-25T08:17:57.219Z,25.74
2022-08-25T08:20:25.212Z,26.23
2022-08-25T08:22:52.149Z,26.45
2022-08-25T08:25:21.606Z,26.61
2022-08-25T08:27:55.040Z,26.79
2022-08-25T08:30:23.763Z,27.33
2022-08-25T08:33:11.852Z,28.24
2022-08-25T08:35:42.182Z,28.93
2022-08-25T08:38:14.428Z,29.30
2022-08-25T08:41:22.996Z,29.83
2022-08-25T08:43:56.425Z,29.80
2022-08-25T08:46:23.374Z,29.32
2022-08-25T08:49:09.876Z,28.64
2022-08-25T08:51:51.366Z,28.54
2022-08-25T08:54:25.205Z,28.17
2022-08-25T08:57:16.668Z,28.38
2022-08-25T08:59:50.393Z,28.23
2022-08-25T09:02:39.319Z,28.29
2022-08-25T09:05:20.086Z,28.10
2022-08-25T09:07:57.605Z,27.81
2022-08-25T09:10:29.253Z,28.32
2022-08-25T09:13:11.878Z,28.22
2022-08-25T09:16:13.156Z,28.43
2022-08-25T09:19:21.226Z,28.48
2022-08-25T09:22:33.598Z,28.46
2022-08-25T09:25:08.496Z,28.44
2022-08-25T09:27:46.538Z,28.75
2022-08-25T09:30:17.155Z,28.48
2022-08-25T09:33:05.107Z,28.56
2022-08-25T09:35:34.260Z,28.33
2022-08-25T09:38:12.396Z,28.63
2022-08-25T09:40:42.998Z,28.82
2022-08-25T09:43:21.925Z,28.83
2022-08-25T09:45:58.179Z,28.63
2022-08-25T09:48:40.901Z,28.45
2022-08-25T09:51:20.884Z,28.44
2022-08-25T09:54:20.365Z,29.16
2022-08-25T09:56:54.862Z,29.39
2022-08-25T09:59:36.616Z,29.56
2022-08-25T10:02:25.947Z,29.14
2022-08-25T10:04:54.345Z,29.38
2022-08-25T10:07:51.804Z,29.29
2022-08-25T10:10:34.499Z,29.30
2022-08-25T10:13:03.600Z,29.50
2022-08-25T10:15:36.600Z,29.96
2022-08-25T10:18:15.767Z,29.97
2022-08-25T10:20:44.956Z,29.95
2022-08-25T10:23:19.134Z,29.78
2022-08-25T10:25:59.277Z,29.69
2022-08-25T10:28:35.024Z,29.84
2022-08-25T10:31:25.818Z,30.53
2022-08-25T10:34:05.211Z,30.47
2022-08-25T10:36:56.077Z,30.64
2022-08-25T10:39:55.391Z,30.23
2022-08-25T10:42:49.474Z,30.37
2022-08-25T10:45:43.484Z,31.23
2022-08-25T10:48:35.050Z,31.62
2022-08-25T10:51:19.622Z,31.67
2022-08-25T10:54:07.849Z,31.35
2022-08-25T10:56:40.868Z,31.26
2022-08-25T10:59:25.853Z,31.76
2022-08-25T11:02:12.871Z,31.83
2022-08-25T11:04:53.024Z,31.57
2022-08-25T11:07:35.853Z,31.54
2022-08-25T11:10:12.351Z,31.70
2022-08-25T11:12:57.265Z,32.92
2022-08-25T11:15:50.238Z,33.42
2022-08-25T11:18:31.893Z,34.42
2022-08-25T11:21:14.123Z,36.41
2022-08-25T11:24:09.187Z,38.33
2022-08-25T11:26:38.085Z,38.10
2022-08-25T11:29:17.714Z,38.51
2022-08-25T11:31:52.857Z,38.18
2022-08-25T11:34:21.597Z,38.31
2022-08-25T11:36:58.104Z,39.51
2022-08-25T11:39:54.395Z,39.49
2022-08-25T11:42:35.095Z,40.85
2022-08-25T11:45:23.651Z,38.45
2022-08-25T11:48:18.233Z,37.07
2022-08-25T11:51:03.528Z,36.69
2022-08-25T11:53:37.960Z,35.81
2022-08-25T11:56:32.658Z,36.02
2022-08-25T11:59:01.478Z,35.49
2022-08-25T12:01:40.482Z,34.38
2022-08-25T12:04:31.695Z,33.82
2022-08-25T12:07:08.844Z,34.43
2022-08-25T12:09:55.492Z,34.62
2022-08-25T12:12:28.309Z,34.35
2022-08-25T12:14:55.174Z,33.58
2022-08-25T12:17:36.833Z,33.67
2022-08-25T12:20:07.098Z,33.66
2022-08-25T12:22:34.271Z,33.86
2022-08-25T12:25:24.475Z,33.82
2022-08-25T12:27:51.412Z,34.23
2022-08-25T12:30:47.749Z,34.65
2022-08-25T12:33:26.289Z,34.01
2022-08-25T12:36:05.275Z,33.17
2022-08-25T12:38:53.005Z,33.95
2022-08-25T12:41:24.514Z,33.74
2022-08-25T12:43:54.483Z,33.56
2022-08-25T12:46:21.255Z,33.11
2022-08-25T12:49:14.398Z,33.16
2022-08-25T12:51:57.348Z,32.73
2022-08-25T12:54:41.007Z,32.49
2022-08-25T12:57:29.487Z,32.20
2022-08-25T12:59:59.802Z,32.26
2022-08-25T13:02:51.665Z,32.61
2022-08-25T13:05:22.020Z,32.11
2022-08-25T13:08:22.646Z,31.95
2022-08-25T13:11:05.562Z,32.83
2022-08-25T13:13:47.389Z,32.27
2022-08-25T13:16:28.446Z,32.04
2022-08-25T13:18:59.366Z,32.74
2022-08-25T13:21:41.916Z,33.39
2022-08-25T13:24:30.298Z,33.26
2022-08-25T13:27:09.539Z,32.54
2022-08-25T13:29:49.352Z,33.39
2022-08-25T13:32:27.082Z,33.37
2022-08-25T13:35:14.525Z,33.30
2022-08-25T13:37:41.358Z,33.49
2022-08-25T13:40:20.261Z,34.10
2022-08-25T13:42:58.112Z,34.60
2022-08-25T13:45:31.797Z,35.24
2022-08-25T13:47:59.079Z,35.89
2022-08-25T13:50:26.445Z,37.37
2022-08-25T13:53:23.869Z,38.19
2022-08-25T13:55:57.133Z,39.52
2022-08-25T13:58:45.242Z,40.15
2022-08-25T14:01:48.050Z,41.43
2022-08-25T14:04:20.101Z,41.51
2022-08-25T14:06:47.286Z,42.71
2022-08-25T14:09:28.304Z,41.93
2022-08-25T14:11:58.669Z,41.78
2022-08-25T14:14:25.280Z,39.39
2022-08-25T14:17:28.803Z,39.29
2022-08-25T14:19:59.627Z,39.64
2022-08-25T14:22:27.128Z,39.94
2022-08-25T14:24:55.696Z,38.23
2022-08-25T14:27:22.424Z,37.68
2022-08-25T14:29:52.700Z,36.99
2022-08-25T14:32:19.892Z,36.10
2022-08-25T14:34:47.150Z,35.69
2022-08-25T14:37:17.247Z,34.73
2022-08-25T14:39:44.761Z,34.73
2022-08-25T14:42:12.588Z,34.51
2022-08-25T14:44:39.666Z,34.01
2022-08-25T14:47:07.768Z,34.18
2022-08-25T14:49:38.498Z,34.57
2022-08-25T14:52:13.156Z,34.25
2022-08-25T14:54:39.871Z,34.11
2022-08-25T14:57:08.300Z,34.41
2022-08-25T14:59:35.608Z,34.40
2022-08-25T15:02:14.223Z,34.08
2022-08-25T15:04:48.975Z,33.69
2022-08-25T15:07:37.469Z,33.72
2022-08-25T15:10:07.808Z,33.71
2022-08-25T15:12:46.574Z,33.96
2022-08-25T15:15:14.970Z,33.93
2022-08-25T15:17:44.628Z,33.47
2022-08-25T15:20:11.891Z,33.37
2022-08-25T15:22:38.676Z,32.90
2022-08-25T15:25:05.929Z,33.10
2022-08-25T15:27:34.576Z,33.33
2022-08-25T15:30:02.804Z,33.10
2022-08-25T15:32:29.489Z,33.26
2022-08-25T15:34:56.102Z,33.42
2022-08-25T15:37:23.515Z,33.51
2022-08-25T15:39:50.314Z,33.61
2022-08-25T15:42:17.087Z,33.84
2022-08-25T15:44:53.164Z,33.71
2022-08-25T15:47:21.806Z,33.35
2022-08-25T15:49:48.477Z,33.01
2022-08-25T15:52:15.399Z,32.94
2022-08-25T15:54:42.025Z,32.64
2022-08-25T15:57:15.115Z,32.57
2022-08-25T15:59:52.482Z,32.57
2022-08-25T16:02:20.704Z,32.68
2022-08-25T16:04:47.647Z,32.59
2022-08-25T16:07:14.296Z,32.56
2022-08-25T16:09:41.817Z,32.69
2022-08-25T16:12:08.998Z,32.60
2022-08-25T16:14:38.275Z,32.51
2022-08-25T16:17:06.568Z,32.62
2022-08-25T16:19:33.584Z,32.55
2022-08-25T16:22:06.633Z,32.53
2022-08-25T16:24:38.448Z,32.62
2022-08-25T16:27:11.042Z,32.68
2022-08-25T16:29:42.628Z,32.56
2022-08-25T16:32:11.440Z,32.58
2022-08-25T16:34:40.702Z,32.33
2022-08-25T16:37:08.690Z,32.29
2022-08-25T16:39:36.097Z,32.37
2022-08-25T16:42:06.940Z,32.32
2022-08-25T16:44:34.539Z,32.37
2022-08-25T16:47:02.099Z,32.26
2022-08-25T16:49:28.954Z,32.47
2022-08-25T16:51:57.280Z,32.03
2022-08-25T16:54:44.360Z,31.81
2022-08-25T16:57:11.621Z,31.10
2022-08-25T16:59:38.143Z,31.93
2022-08-25T17:02:06.519Z,31.58
2022-08-25T17:04:33.304Z,31.72
2022-08-25T17:07:00.069Z,31.89
2022-08-25T17:09:29.578Z,31.74
2022-08-25T17:11:57.274Z,31.58
2022-08-25T17:14:24.479Z,31.55
2022-08-25T17:16:54.697Z,31.32
2022-08-25T17:19:23.611Z,31.27
2022-08-25T17:21:51.046Z,31.23
2022-08-25T17:24:18.262Z,31.25
2022-08-25T17:26:47.284Z,31.18
2022-08-25T17:29:14.016Z,31.15
2022-08-25T17:31:42.936Z,30.90
2022-08-25T17:34:16.428Z,30.83
2022-08-25T17:36:44.052Z,30.79
2022-08-25T17:39:13.211Z,31.05
2022-08-25T17:41:43.100Z,30.96
2022-08-25T17:44:09.810Z,30.81
2022-08-25T17:46:36.945Z,30.64
2022-08-25T17:49:04.326Z,30.64
2022-08-25T17:51:32.032Z,30.59
2022-08-25T17:53:59.312Z,30.47
2022-08-25T17:56:27.844Z,30.57
2022-08-25T17:58:56.062Z,30.31
2022-08-25T18:01:27.683Z,29.76
2022-08-25T18:03:55.038Z,30.12
2022-08-25T18:06:23.810Z,29.96
2022-08-25T18:08:53.011Z,30.12
2022-08-25T18:11:23.649Z,30.13
2022-08-25T18:13:54.761Z,29.94
2022-08-25T18:16:22.610Z,29.53
2022-08-25T18:18:49.770Z,29.83
2022-08-25T18:21:20.437Z,29.63
2022-08-25T18:23:47.810Z,29.67
2022-08-25T18:26:15.460Z,29.51
2022-08-25T18:28:44.000Z,29.58
2022-08-25T18:31:13.134Z,29.51
2022-08-25T18:33:42.222Z,29.07
2022-08-25T18:36:10.010Z,29.29
2022-08-25T18:38:58.137Z,29.43
2022-08-25T18:41:26.834Z,29.40
2022-08-25T18:43:53.517Z,29.46
2022-08-25T18:46:22.602Z,29.46
2022-08-25T18:48:52.964Z,29.37
2022-08-25T18:51:23.273Z,29.21
2022-08-25T18:53:54.603Z,29.22
2022-08-25T18:56:26.718Z,29.13
2022-08-25T18:58:53.456Z,29.27
2022-08-25T19:01:20.651Z,29.23
2022-08-25T19:03:49.253Z,29.02
2022-08-25T19:06:16.962Z,28.76
2022-08-25T19:08:44.622Z,28.77
2022-08-25T19:11:12.187Z,28.77
2022-08-25T19:13:39.451Z,28.56
2022-08-25T19:16:14.019Z,28.69
2022-08-25T19:18:44.979Z,28.45
2022-08-25T19:21:11.858Z,28.60
2022-08-25T19:23:38.998Z,28.68
2022-08-25T19:26:08.686Z,28.47
2022-08-25T19:28:45.521Z,28.30
2022-08-25T19:31:12.636Z,27.86
2022-08-25T19:33:44.863Z,27.98
2022-08-25T19:36:12.199Z,27.86
2022-08-25T19:38:39.415Z,28.13
2022-08-25T19:41:09.399Z,28.13
2022-08-25T19:43:56.147Z,28.05
2022-08-25T19:46:32.245Z,28.00
2022-08-25T19:49:08.025Z,27.98
2022-08-25T19:51:38.520Z,27.90
2022-08-25T19:54:06.492Z,27.54
2022-08-25T19:56:37.517Z,26.95
2022-08-25T19:59:11.268Z,26.85
2022-08-25T20:01:38.812Z,26.98
2022-08-25T20:04:07.228Z,27.03
2022-08-25T20:06:33.964Z,27.27
2022-08-25T20:09:00.778Z,27.34
2022-08-25T20:11:28.969Z,27.07
2022-08-25T20:13:59.297Z,27.24
2022-08-25T20:16:29.919Z,27.28
2022-08-25T20:18:56.672Z,27.22
2022-08-25T20:21:24.325Z,27.16
2022-08-25T20:24:09.303Z,27.15
2022-08-25T20:26:36.429Z,27.12
2022-08-25T20:29:05.208Z,27.02
2022-08-25T20:31:32.589Z,26.83
2022-08-25T20:34:02.846Z,26.95
2022-08-25T20:36:30.216Z,26.74
2022-08-25T20:38:59.023Z,26.78
2022-08-25T20:41:25.988Z,26.52
2022-08-25T20:43:52.767Z,26.59
2022-08-25T20:46:19.626Z,26.58
2022-08-25T20:48:47.014Z,26.57
2022-08-25T20:51:18.680Z,26.71
2022-08-25T20:53:45.849Z,26.85
2022-08-25T20:56:15.717Z,26.80
2022-08-25T20:58:43.124Z,26.84
2022-08-25T21:01:20.339Z,26.77
2022-08-25T21:03:50.399Z,26.46
2022-08-25T21:06:17.214Z,26.59
2022-08-25T21:08:47.021Z,26.66
2022-08-25T21:11:17.991Z,26.61
2022-08-25T21:13:45.940Z,26.53
2022-08-25T21:16:12.687Z,26.26
2022-08-25T21:18:47.857Z,26.16
2022-08-25T21:21:16.810Z,25.97
2022-08-25T21:23:47.443Z,25.79
2022-08-25T21:26:27.831Z,25.78
2022-08-25T21:28:59.000Z,25.74
2022-08-25T21:31:26.240Z,25.56
2022-08-25T21:33:56.165Z,25.16
2022-08-25T21:36:24.683Z,25.03
2022-08-25T21:38:53.166Z,25.01
2022-08-25T21:41:27.087Z,25.12
2022-08-25T21:43:54.391Z,24.95
2022-08-25T21:46:24.472Z,25.22
2022-08-25T21:48:52.508Z,25.33
2022-08-25T21:51:26.771Z,25.60
2022-08-25T21:54:08.921Z,25.38
2022-08-25T21:56:37.942Z,25.66
2022-08-25T21:59:06.328Z,25.61
2022-08-25T22:01:33.770Z,25.77
2022-08-25T22:04:02.179Z,25.78
2022-08-25T22:06:29.861Z,25.93
2022-08-25T22:08:56.604Z,26.01
2022-08-25T22:11:23.416Z,26.13
2022-08-25T22:13:51.649Z,25.96
2022-08-25T22:16:22.372Z,25.89
2022-08-25T22:18:49.793Z,25.88
2022-08-25T22:21:18.731Z,25.53
2022-08-25T22:23:45.500Z,25.54
2022-08-25T22:26:15.514Z,25.60
2022-08-25T22:28:46.561Z,25.80
2022-08-25T22:31:14.652Z,25.76
2022-08-25T22:33:48.583Z,25.68
2022-08-25T22:36:19.220Z,25.83
2022-08-25T22:38:47.841Z,25.83
2022-08-25T22:41:19.061Z,25.63
2022-08-25T22:43:49.631Z,25.54
2022-08-25T22:46:20.601Z,25.49
2022-08-25T22:48:47.360Z,25.45
2022-08-25T22:51:23.455Z,25.43
2022-08-25T22:53:50.740Z,25.22
2022-08-25T22:56:21.160Z,24.99
2022-08-25T22:58:51.702Z,25.19
2022-08-25T23:01:20.274Z,25.21
2022-08-25T23:03:47.581Z,25.09
2022-08-25T23:06:24.604Z,24.92
2022-08-25T23:08:54.092Z,24.65
2022-08-25T23:11:22.098Z,24.40
2022-08-25T23:13:49.065Z,24.44
2022-08-25T23:16:17.010Z,24.52
2022-08-25T23:18:47.159Z,24.86
2022-08-25T23:21:35.126Z,25.18
2022-08-25T23:24:05.750Z,25.15
2022-08-25T23:26:33.936Z,25.14
2022-08-25T23:29:01.134Z,24.89
2022-08-25T23:31:30.396Z,24.67
2022-08-25T23:33:57.734Z,24.87
2022-08-25T23:36:24.754Z,24.30
2022-08-25T23:38:52.702Z,24.26
2022-08-25T23:41:24.577Z,24.37
2022-08-25T23:43:52.801Z,24.39
2022-08-25T23:46:23.339Z,24.14
2022-08-25T23:48:51.596Z,24.14
2022-08-25T23:51:30.812Z,24.14
2022-08-25T23:53:59.334Z,24.17
2022-08-25T23:56:26.221Z,24.23
2022-08-25T23:58:55.530Z,24.18
